sensor_id;sensor_type;location;lat;lon;timestamp;P1;durP1;ratioP1;P2;durP2;ratioP2
73315;SDS011;61545;53.726;-0.444;2022-09-14T00:03:00;4.0;;;1;;
73315;SDS011;61545;53.726;-0.444;2022-09-14T00:08:00;3.4;;;1;;
73315;SDS011;61545;53.726;-0.444;2022-09-14T00:13:00;2.6;;;0.8;;
73315;SDS011;61545;53.726;-0.444;2022-09-14T00:18:00;3.6;;;0.8;;
73315;SDS011;61545;53.726;-0.444;2022-09-14T00:23:00;4.7;;;1.1;;
73315;SDS011;61545;53.726;-0.444;2022-09-14T00:28:00;4.7;;;1.1;;
73315;SDS011;61545;53.726;-0.444;2022-09-14T00:33:00;7.5;;;1.1;;
73315;SDS011;61545;53.726;-0.444;2022-09-14T00:38:00;5.1;;;1.3;;
73315;SDS011;61545;53.726;-0.444;2022-09-14T00:43:00;4.1;;;1;;
73315;SDS011;61545;53.726;-0.444;2022-09-14T00:48:00;5.2;;;1.4;;
73315;SDS011;61545;53.726;-0.444;2022-09-14T00:53:00;4.9;;;1.3;;
73315;SDS011;61545;53.726;-0.444;2022-09-14T00:58:00;4.9;;;1.3;;
73315;SDS011;61545;53.726;-0.444;2022-09-14T01:03:00;4.2;;;1.6;;
73315;SDS011;61545;53.726;-0.444;2022-09-14T01:08:08;3.8;;;1.6;;
73315;SDS011;61545;53.726;-0.444;2022-09-14T01:13:06;6.4;;;1.8;;
73315;SDS011;61545;53.726;-0.444;2022-09-14T01:18:03;5.3;;;1.6;;
73315;SDS011;61545;53.726;-0.444;2022-09-14T01:23:05;7.3;;;1.9;;
73315;SDS011;61545;53.726;-0.444;2022-09-14T01:28:00;7.3;;;1.9;;
73315;SDS011;61545;53.726;-0.444;2022-09-14T01:33:02;4.6;;;1.8;;
73315;SDS011;61545;53.726;-0.444;2022-09-14T01:38:01;8.7;;;2.2;;
73315;SDS011;61545;53.726;-0.444;2022-09-14T01:43:02;5.0;;;1.7;;
73315;SDS011;61545;53.726;-0.444;2022-09-14T01:48:01;3.8;;;1.6;;
73315;SDS011;61545;53.726;-0.444;2022-09-14T01:53:04;5.6;;;1.8;;
73315;SDS011;61545;53.726;-0.444;2022-09-14T01:58:02;5.6;;;1.8;;
73315;SDS011;61545;53.726;-0.444;2022-09-14T02:03:03;5.7;;;2.3;;
73315;SDS011;61545;53.726;-0.444;2022-09-14T02:08:00;6.7;;;2.5;;
73315;SDS011;61545;53.726;-0.444;2022-09-14T02:13:00;8.7;;;2.9;;
73315;SDS011;61545;53.726;-0.444;2022-09-14T02:18:00;11.8;;;3.2;;
73315;SDS011;61545;53.726;-0.444;2022-09-14T02:23:00;9.1;;;3.2;;
73315;SDS011;61545;53.726;-0.444;2022-09-14T02:28:00;9.1;;;3.2;;
73315;SDS011;61545;53.726;-0.444;2022-09-14T02:33:04;10.1;;;3.1;;
73315;SDS011;61545;53.726;-0.444;2022-09-14T02:38:05;10.5;;;3.2;;
73315;SDS011;61545;53.726;-0.444;2022-09-14T02:43:07;8.2;;;3.3;;
73315;SDS011;61545;53.726;-0.444;2022-09-14T02:48:03;13.1;;;3.1;;
73315;SDS011;61545;53.726;-0.444;2022-09-14T02:53:04;10.5;;;3.1;;
73315;SDS011;61545;53.726;-0.444;2022-09-14T02:58:02;10.5;;;3.1;;
73315;SDS011;61545;53.726;-0.444;2022-09-14T03:03:00;7.3;;;3.1;;
73315;SDS011;61545;53.726;-0.444;2022-09-14T03:08:01;12.5;;;4.3;;
73315;SDS011;61545;53.726;-0.444;2022-09-14T03:13:00;9.9;;;4.6;;
73315;SDS011;61545;53.726;-0.444;2022-09-14T03:18:00;14.4;;;5.2;;
73315;SDS011;61545;53.726;-0.444;2022-09-14T03:23:00;14.4;;;5.2;;
73315;SDS011;61545;53.726;-0.444;2022-09-14T03:28:00;11.6;;;5.1;;
73315;SDS011;61545;53.726;-0.444;2022-09-14T03:33:00;11.8;;;4.8;;
73315;SDS011;61545;53.726;-0.444;2022-09-14T03:38:00;9.7;;;4.8;;
73315;SDS011;61545;53.726;-0.444;2022-09-14T03:43:00;10.8;;;4.6;;
73315;SDS011;61545;53.726;-0.444;2022-09-14T03:48:00;11.4;;;4.8;;
73315;SDS011;61545;53.726;-0.444;2022-09-14T03:53:00;11.4;;;4.8;;
73315;SDS011;61545;53.726;-0.444;2022-09-14T03:58:00;7.8;;;3.4;;
73315;SDS011;61545;53.726;-0.444;2022-09-14T04:03:00;8.3;;;3.1;;
73315;SDS011;61545;53.726;-0.444;2022-09-14T04:08:00;5.9;;;3;;
73315;SDS011;61545;53.726;-0.444;2022-09-14T04:13:00;7.0;;;2.6;;
73315;SDS011;61545;53.726;-0.444;2022-09-14T04:18:00;6.7;;;2.6;;
73315;SDS011;61545;53.726;-0.444;2022-09-14T04:23:00;6.7;;;2.6;;
73315;SDS011;61545;53.726;-0.444;2022-09-14T04:28:00;6.4;;;2.6;;
73315;SDS011;61545;53.726;-0.444;2022-09-14T04:33:00;7.7;;;2.8;;
73315;SDS011;61545;53.726;-0.444;2022-09-14T04:38:00;7.7;;;2.9;;
73315;SDS011;61545;53.726;-0.444;2022-09-14T04:43:00;8.2;;;2.7;;
73315;SDS011;61545;53.726;-0.444;2022-09-14T04:48:00;4.0;;;2.3;;
73315;SDS011;61545;53.726;-0.444;2022-09-14T04:53:00;4.0;;;2.3;;
73315;SDS011;61545;53.726;-0.444;2022-09-14T04:58:00;4.4;;;2.2;;
73315;SDS011;61545;53.726;-0.444;2022-09-14T05:03:00;6.8;;;3;;
73315;SDS011;61545;53.726;-0.444;2022-09-14T05:08:00;6.4;;;2.9;;
73315;SDS011;61545;53.726;-0.444;2022-09-14T05:13:00;7.6;;;3;;
73315;SDS011;61545;53.726;-0.444;2022-09-14T05:18:00;5.9;;;2.9;;
73315;SDS011;61545;53.726;-0.444;2022-09-14T05:23:00;5.9;;;2.9;;
73315;SDS011;61545;53.726;-0.444;2022-09-14T05:28:00;6.2;;;2.3;;
73315;SDS011;61545;53.726;-0.444;2022-09-14T05:33:00;7.1;;;2.9;;
73315;SDS011;61545;53.726;-0.444;2022-09-14T05:38:00;6.0;;;3.2;;
73315;SDS011;61545;53.726;-0.444;2022-09-14T05:43:00;7.5;;;3.5;;
73315;SDS011;61545;53.726;-0.444;2022-09-14T05:48:00;11.0;;;3.9;;
73315;SDS011;61545;53.726;-0.444;2022-09-14T05:53:00;11.0;;;3.9;;
73315;SDS011;61545;53.726;-0.444;2022-09-14T05:58:00;13.2;;;4.4;;
73315;SDS011;61545;53.726;-0.444;2022-09-14T06:03:00;8.5;;;4.6;;
73315;SDS011;61545;53.726;-0.444;2022-09-14T06:08:00;9.6;;;5.4;;
73315;SDS011;61545;53.726;-0.444;2022-09-14T06:13:00;12.5;;;5.7;;
73315;SDS011;61545;53.726;-0.444;2022-09-14T06:18:00;10.9;;;5.8;;
73315;SDS011;61545;53.726;-0.444;2022-09-14T06:23:00;10.9;;;5.8;;
73315;SDS011;61545;53.726;-0.444;2022-09-14T06:28:00;15.5;;;8;;
73315;SDS011;61545;53.726;-0.444;2022-09-14T06:33:00;13.2;;;7.6;;
73315;SDS011;61545;53.726;-0.444;2022-09-14T06:38:00;20.9;;;10.9;;
73315;SDS011;61545;53.726;-0.444;2022-09-14T06:43:00;16.1;;;10.2;;
73315;SDS011;61545;53.726;-0.444;2022-09-14T06:48:00;21.9;;;10.3;;
73315;SDS011;61545;53.726;-0.444;2022-09-14T06:53:00;21.9;;;10.3;;
73315;SDS011;61545;53.726;-0.444;2022-09-14T06:58:00;18.3;;;11.1;;
73315;SDS011;61545;53.726;-0.444;2022-09-14T07:03:00;15.6;;;10.9;;
73315;SDS011;61545;53.726;-0.444;2022-09-14T07:08:00;21.8;;;12.7;;
73315;SDS011;61545;53.726;-0.444;2022-09-14T07:13:00;20.8;;;11.4;;
73315;SDS011;61545;53.726;-0.444;2022-09-14T07:18:00;26.1;;;14.8;;
73315;SDS011;61545;53.726;-0.444;2022-09-14T07:23:00;26.1;;;14.8;;
73315;SDS011;61545;53.726;-0.444;2022-09-14T07:28:00;24.4;;;13.9;;
73315;SDS011;61545;53.726;-0.444;2022-09-14T07:33:00;35.6;;;19.5;;
73315;SDS011;61545;53.726;-0.444;2022-09-14T07:38:00;21.0;;;12.1;;
73315;SDS011;61545;53.726;-0.444;2022-09-14T07:43:00;21.3;;;11;;
73315;SDS011;61545;53.726;-0.444;2022-09-14T07:48:00;18.8;;;9.7;;
73315;SDS011;61545;53.726;-0.444;2022-09-14T07:53:00;18.8;;;9.7;;
73315;SDS011;61545;53.726;-0.444;2022-09-14T07:58:00;17.0;;;9.2;;
73315;SDS011;61545;53.726;-0.444;2022-09-14T08:03:00;15.7;;;8.4;;
73315;SDS011;61545;53.726;-0.444;2022-09-14T08:08:00;15.3;;;8.8;;
73315;SDS011;61545;53.726;-0.444;2022-09-14T08:13:00;16.3;;;9.2;;
73315;SDS011;61545;53.726;-0.444;2022-09-14T08:18:00;14.2;;;8.8;;
73315;SDS011;61545;53.726;-0.444;2022-09-14T08:23:00;14.2;;;8.8;;
73315;SDS011;61545;53.726;-0.444;2022-09-14T08:28:00;21.2;;;9.4;;
73315;SDS011;61545;53.726;-0.444;2022-09-14T08:33:00;16.0;;;8.9;;
73315;SDS011;61545;53.726;-0.444;2022-09-14T08:38:00;16.0;;;9.3;;
73315;SDS011;61545;53.726;-0.444;2022-09-14T08:43:00;12.2;;;7.2;;
73315;SDS011;61545;53.726;-0.444;2022-09-14T08:48:00;14.6;;;7.9;;
73315;SDS011;61545;53.726;-0.444;2022-09-14T08:53:00;14.6;;;7.9;;
73315;SDS011;61545;53.726;-0.444;2022-09-14T08:58:03;9.6;;;6.5;;
73315;SDS011;61545;53.726;-0.444;2022-09-14T09:03:13;11.7;;;7;;
73315;SDS011;61545;53.726;-0.444;2022-09-14T09:08:05;12.1;;;6.8;;
73315;SDS011;61545;53.726;-0.444;2022-09-14T09:13:01;10.7;;;7.1;;
73315;SDS011;61545;53.726;-0.444;2022-09-14T09:18:03;8.6;;;5.9;;
73315;SDS011;61545;53.726;-0.444;2022-09-14T09:23:05;8.6;;;5.9;;
73315;SDS011;61545;53.726;-0.444;2022-09-14T09:28:02;8.5;;;6.6;;
73315;SDS011;61545;53.726;-0.444;2022-09-14T09:33:00;9.4;;;5.8;;
73315;SDS011;61545;53.726;-0.444;2022-09-14T09:38:00;8.6;;;6.2;;
73315;SDS011;61545;53.726;-0.444;2022-09-14T09:43:09;9.7;;;7;;
73315;SDS011;61545;53.726;-0.444;2022-09-14T09:48:07;13.9;;;8;;
73315;SDS011;61545;53.726;-0.444;2022-09-14T09:53:00;13.9;;;8;;
73315;SDS011;61545;53.726;-0.444;2022-09-14T09:58:19;10.5;;;7.7;;
73315;SDS011;61545;53.726;-0.444;2022-09-14T10:03:00;10.6;;;6.9;;
73315;SDS011;61545;53.726;-0.444;2022-09-14T10:08:01;12.2;;;6.3;;
73315;SDS011;61545;53.726;-0.444;2022-09-14T10:13:01;10.1;;;7.5;;
73315;SDS011;61545;53.726;-0.444;2022-09-14T10:18:07;12.3;;;8.3;;
73315;SDS011;61545;53.726;-0.444;2022-09-14T10:23:14;12.3;;;8.3;;
73315;SDS011;61545;53.726;-0.444;2022-09-14T10:28:00;13.3;;;7.8;;
73315;SDS011;61545;53.726;-0.444;2022-09-14T10:33:02;15.8;;;9.2;;
73315;SDS011;61545;53.726;-0.444;2022-09-14T10:38:09;16.4;;;10;;
73315;SDS011;61545;53.726;-0.444;2022-09-14T10:43:07;17.6;;;10.1;;
73315;SDS011;61545;53.726;-0.444;2022-09-14T10:48:10;14.4;;;9.9;;
73315;SDS011;61545;53.726;-0.444;2022-09-14T10:53:07;14.4;;;9.9;;
73315;SDS011;61545;53.726;-0.444;2022-09-14T10:58:06;16.1;;;10.1;;
73315;SDS011;61545;53.726;-0.444;2022-09-14T11:03:07;13.3;;;8.9;;
73315;SDS011;61545;53.726;-0.444;2022-09-14T11:08:08;12.9;;;7.8;;
73315;SDS011;61545;53.726;-0.444;2022-09-14T11:13:11;11.3;;;5.3;;
73315;SDS011;61545;53.726;-0.444;2022-09-14T11:18:07;6.9;;;3.3;;
73315;SDS011;61545;53.726;-0.444;2022-09-14T11:23:08;6.9;;;3.3;;
73315;SDS011;61545;53.726;-0.444;2022-09-14T11:28:02;7.5;;;4.5;;
73315;SDS011;61545;53.726;-0.444;2022-09-14T11:33:01;8.9;;;4.7;;
73315;SDS011;61545;53.726;-0.444;2022-09-14T11:38:02;8.2;;;4.2;;
73315;SDS011;61545;53.726;-0.444;2022-09-14T11:43:04;5.7;;;3.1;;
73315;SDS011;61545;53.726;-0.444;2022-09-14T11:48:08;14.7;;;4;;
73315;SDS011;61545;53.726;-0.444;2022-09-14T11:53:07;14.7;;;4;;
73315;SDS011;61545;53.726;-0.444;2022-09-14T11:58:00;5.7;;;2.9;;
73315;SDS011;61545;53.726;-0.444;2022-09-14T12:03:12;5.8;;;2.2;;
73315;SDS011;61545;53.726;-0.444;2022-09-14T12:08:03;5.6;;;2.6;;
73315;SDS011;61545;53.726;-0.444;2022-09-14T12:13:17;7.9;;;3.1;;
73315;SDS011;61545;53.726;-0.444;2022-09-14T12:18:33;6.6;;;2.5;;
73315;SDS011;61545;53.726;-0.444;2022-09-14T12:23:11;6.6;;;2.5;;
73315;SDS011;61545;53.726;-0.444;2022-09-14T12:28:00;9.3;;;2.8;;
73315;SDS011;61545;53.726;-0.444;2022-09-14T12:33:00;6.1;;;2.7;;
73315;SDS011;61545;53.726;-0.444;2022-09-14T12:38:37;5.4;;;1.9;;
73315;SDS011;61545;53.726;-0.444;2022-09-14T12:43:51;5.2;;;2.2;;
73315;SDS011;61545;53.726;-0.444;2022-09-14T12:48:00;5.5;;;2.1;;
73315;SDS011;61545;53.726;-0.444;2022-09-14T12:53:06;5.5;;;2.1;;
73315;SDS011;61545;53.726;-0.444;2022-09-14T12:58:03;5.2;;;1.7;;
73315;SDS011;61545;53.726;-0.444;2022-09-14T13:03:09;6.2;;;2;;
73315;SDS011;61545;53.726;-0.444;2022-09-14T13:08:01;4.6;;;1.9;;
73315;SDS011;61545;53.726;-0.444;2022-09-14T13:13:01;4.3;;;1.7;;
73315;SDS011;61545;53.726;-0.444;2022-09-14T13:18:01;6.3;;;2.1;;
73315;SDS011;61545;53.726;-0.444;2022-09-14T13:23:00;6.3;;;2.1;;
73315;SDS011;61545;53.726;-0.444;2022-09-14T13:28:02;6.3;;;1.8;;
73315;SDS011;61545;53.726;-0.444;2022-09-14T13:33:00;4.9;;;1.9;;
73315;SDS011;61545;53.726;-0.444;2022-09-14T13:38:05;6.5;;;2.1;;
73315;SDS011;61545;53.726;-0.444;2022-09-14T13:43:00;5.9;;;1.6;;
73315;SDS011;61545;53.726;-0.444;2022-09-14T13:48:00;5.6;;;1.8;;
73315;SDS011;61545;53.726;-0.444;2022-09-14T13:53:00;5.6;;;1.8;;
73315;SDS011;61545;53.726;-0.444;2022-09-14T13:58:05;7.0;;;1.9;;
73315;SDS011;61545;53.726;-0.444;2022-09-14T14:03:01;5.1;;;1.5;;
73315;SDS011;61545;53.726;-0.444;2022-09-14T14:08:01;4.7;;;1.5;;
73315;SDS011;61545;53.726;-0.444;2022-09-14T14:13:00;5.4;;;1.6;;
73315;SDS011;61545;53.726;-0.444;2022-09-14T14:18:01;6.0;;;1.6;;
73315;SDS011;61545;53.726;-0.444;2022-09-14T14:23:13;6.0;;;1.6;;
73315;SDS011;61545;53.726;-0.444;2022-09-14T14:28:01;4.7;;;1.6;;
73315;SDS011;61545;53.726;-0.444;2022-09-14T14:33:00;6.6;;;1.6;;
73315;SDS011;61545;53.726;-0.444;2022-09-14T14:38:00;4.3;;;1.3;;
73315;SDS011;61545;53.726;-0.444;2022-09-14T14:43:00;5.5;;;1.6;;
73315;SDS011;61545;53.726;-0.444;2022-09-14T14:48:00;6.3;;;1.6;;
73315;SDS011;61545;53.726;-0.444;2022-09-14T14:53:00;6.3;;;1.6;;
73315;SDS011;61545;53.726;-0.444;2022-09-14T14:58:01;7.1;;;1.6;;
73315;SDS011;61545;53.726;-0.444;2022-09-14T15:03:00;6.7;;;1.6;;
73315;SDS011;61545;53.726;-0.444;2022-09-14T15:08:00;5.4;;;1.5;;
73315;SDS011;61545;53.726;-0.444;2022-09-14T15:13:00;10.2;;;2;;
73315;SDS011;61545;53.726;-0.444;2022-09-14T15:18:00;7.1;;;1.9;;
73315;SDS011;61545;53.726;-0.444;2022-09-14T15:23:00;7.1;;;1.9;;
73315;SDS011;61545;53.726;-0.444;2022-09-14T15:28:00;4.0;;;1.5;;
73315;SDS011;61545;53.726;-0.444;2022-09-14T15:33:00;6.0;;;1.6;;
73315;SDS011;61545;53.726;-0.444;2022-09-14T15:38:00;6.5;;;2.1;;
73315;SDS011;61545;53.726;-0.444;2022-09-14T15:43:00;7.5;;;1.7;;
73315;SDS011;61545;53.726;-0.444;2022-09-14T15:48:00;11.6;;;2;;
73315;SDS011;61545;53.726;-0.444;2022-09-14T15:53:00;11.6;;;2;;
73315;SDS011;61545;53.726;-0.444;2022-09-14T15:58:00;8.1;;;2.4;;
73315;SDS011;61545;53.726;-0.444;2022-09-14T16:03:00;6.2;;;1.5;;
73315;SDS011;61545;53.726;-0.444;2022-09-14T16:08:00;9.3;;;1.7;;
73315;SDS011;61545;53.726;-0.444;2022-09-14T16:13:00;8.5;;;1.8;;
73315;SDS011;61545;53.726;-0.444;2022-09-14T16:18:00;7.6;;;1.6;;
73315;SDS011;61545;53.726;-0.444;2022-09-14T16:23:00;7.6;;;1.6;;
73315;SDS011;61545;53.726;-0.444;2022-09-14T16:28:00;8.2;;;2.2;;
73315;SDS011;61545;53.726;-0.444;2022-09-14T16:33:00;5.0;;;1.5;;
73315;SDS011;61545;53.726;-0.444;2022-09-14T16:38:00;5.2;;;1.6;;
73315;SDS011;61545;53.726;-0.444;2022-09-14T16:43:00;6.2;;;1.5;;
73315;SDS011;61545;53.726;-0.444;2022-09-14T16:48:00;6.0;;;1.3;;
73315;SDS011;61545;53.726;-0.444;2022-09-14T16:53:00;6.0;;;1.3;;
73315;SDS011;61545;53.726;-0.444;2022-09-14T16:58:00;6.8;;;1.5;;
73315;SDS011;61545;53.726;-0.444;2022-09-14T17:03:00;6.5;;;1.1;;
73315;SDS011;61545;53.726;-0.444;2022-09-14T17:08:00;6.4;;;2;;
73315;SDS011;61545;53.726;-0.444;2022-09-14T17:13:00;4.4;;;1.3;;
73315;SDS011;61545;53.726;-0.444;2022-09-14T17:18:00;10.6;;;1.5;;
73315;SDS011;61545;53.726;-0.444;2022-09-14T17:23:00;10.6;;;1.5;;
73315;SDS011;61545;53.726;-0.444;2022-09-14T17:28:00;6.0;;;1.4;;
73315;SDS011;61545;53.726;-0.444;2022-09-14T17:33:00;6.5;;;1.2;;
73315;SDS011;61545;53.726;-0.444;2022-09-14T17:38:00;2.6;;;1;;
73315;SDS011;61545;53.726;-0.444;2022-09-14T17:43:00;5.5;;;1.3;;
73315;SDS011;61545;53.726;-0.444;2022-09-14T17:48:00;5.8;;;1.3;;
73315;SDS011;61545;53.726;-0.444;2022-09-14T17:53:00;5.8;;;1.3;;
73315;SDS011;61545;53.726;-0.444;2022-09-14T17:58:00;6.8;;;1.8;;
73315;SDS011;61545;53.726;-0.444;2022-09-14T18:03:00;6.8;;;1.6;;
73315;SDS011;61545;53.726;-0.444;2022-09-14T18:08:00;5.5;;;1.7;;
73315;SDS011;61545;53.726;-0.444;2022-09-14T18:13:00;3.6;;;1.5;;
73315;SDS011;61545;53.726;-0.444;2022-09-14T18:18:00;7.5;;;1.6;;
73315;SDS011;61545;53.726;-0.444;2022-09-14T18:23:00;7.5;;;1.6;;
73315;SDS011;61545;53.726;-0.444;2022-09-14T18:28:00;6.4;;;1.2;;
73315;SDS011;61545;53.726;-0.444;2022-09-14T18:33:00;3.1;;;1.4;;
73315;SDS011;61545;53.726;-0.444;2022-09-14T18:38:00;8.9;;;1.5;;
73315;SDS011;61545;53.726;-0.444;2022-09-14T18:43:00;5.5;;;1.8;;
73315;SDS011;61545;53.726;-0.444;2022-09-14T18:48:00;5.3;;;1.5;;
73315;SDS011;61545;53.726;-0.444;2022-09-14T18:53:00;5.3;;;1.5;;
73315;SDS011;61545;53.726;-0.444;2022-09-14T18:58:00;7.7;;;1.6;;
73315;SDS011;61545;53.726;-0.444;2022-09-14T19:03:00;4.1;;;1.5;;
73315;SDS011;61545;53.726;-0.444;2022-09-14T19:08:00;4.3;;;1.5;;
73315;SDS011;61545;53.726;-0.444;2022-09-14T19:13:00;6.9;;;1.6;;
73315;SDS011;61545;53.726;-0.444;2022-09-14T19:18:00;6.6;;;1.7;;
73315;SDS011;61545;53.726;-0.444;2022-09-14T19:23:00;6.6;;;1.7;;
73315;SDS011;61545;53.726;-0.444;2022-09-14T19:28:00;9.1;;;1.8;;
73315;SDS011;61545;53.726;-0.444;2022-09-14T19:33:00;4.9;;;1.8;;
73315;SDS011;61545;53.726;-0.444;2022-09-14T19:38:00;3.4;;;1.5;;
73315;SDS011;61545;53.726;-0.444;2022-09-14T19:43:00;3.8;;;1.4;;
73315;SDS011;61545;53.726;-0.444;2022-09-14T19:48:00;5.2;;;1.2;;
73315;SDS011;61545;53.726;-0.444;2022-09-14T19:53:00;5.2;;;1.2;;
73315;SDS011;61545;53.726;-0.444;2022-09-14T19:58:00;3.2;;;1.2;;
73315;SDS011;61545;53.726;-0.444;2022-09-14T20:03:00;4.3;;;1.5;;
73315;SDS011;61545;53.726;-0.444;2022-09-14T20:08:00;5.9;;;1.3;;
73315;SDS011;61545;53.726;-0.444;2022-09-14T20:13:00;6.0;;;1.4;;
73315;SDS011;61545;53.726;-0.444;2022-09-14T20:18:00;4.0;;;1.1;;
73315;SDS011;61545;53.726;-0.444;2022-09-14T20:23:00;4.0;;;1.1;;
73315;SDS011;61545;53.726;-0.444;2022-09-14T20:28:00;10.5;;;1.6;;
73315;SDS011;61545;53.726;-0.444;2022-09-14T20:33:00;6.4;;;1.5;;
73315;SDS011;61545;53.726;-0.444;2022-09-14T20:38:00;7.6;;;1.6;;
73315;SDS011;61545;53.726;-0.444;2022-09-14T20:43:00;7.2;;;1.7;;
73315;SDS011;61545;53.726;-0.444;2022-09-14T20:48:00;4.4;;;1.1;;
73315;SDS011;61545;53.726;-0.444;2022-09-14T20:53:00;4.4;;;1.1;;
73315;SDS011;61545;53.726;-0.444;2022-09-14T20:58:00;6.3;;;1.4;;
73315;SDS011;61545;53.726;-0.444;2022-09-14T21:03:00;8.4;;;1.4;;
73315;SDS011;61545;53.726;-0.444;2022-09-14T21:08:00;6.7;;;1.7;;
73315;SDS011;61545;53.726;-0.444;2022-09-14T21:13:00;7.0;;;1.9;;
73315;SDS011;61545;53.726;-0.444;2022-09-14T21:18:00;5.2;;;1.8;;
73315;SDS011;61545;53.726;-0.444;2022-09-14T21:23:00;5.2;;;1.8;;
73315;SDS011;61545;53.726;-0.444;2022-09-14T21:28:00;9.0;;;1.8;;
73315;SDS011;61545;53.726;-0.444;2022-09-14T21:33:00;7.0;;;1.7;;
73315;SDS011;61545;53.726;-0.444;2022-09-14T21:38:00;7.4;;;1.6;;
73315;SDS011;61545;53.726;-0.444;2022-09-14T21:43:00;5.9;;;1.7;;
73315;SDS011;61545;53.726;-0.444;2022-09-14T21:48:00;6.4;;;1.8;;
73315;SDS011;61545;53.726;-0.444;2022-09-14T21:53:00;6.4;;;1.8;;
73315;SDS011;61545;53.726;-0.444;2022-09-14T21:58:00;7.0;;;1.7;;
73315;SDS011;61545;53.726;-0.444;2022-09-14T22:03:00;5.9;;;1.6;;
73315;SDS011;61545;53.726;-0.444;2022-09-14T22:08:00;7.3;;;1.9;;
73315;SDS011;61545;53.726;-0.444;2022-09-14T22:13:00;8.6;;;2;;
73315;SDS011;61545;53.726;-0.444;2022-09-14T22:18:00;7.6;;;1.8;;
73315;SDS011;61545;53.726;-0.444;2022-09-14T22:23:00;7.6;;;1.8;;
73315;SDS011;61545;53.726;-0.444;2022-09-14T22:28:00;8.1;;;2.5;;
73315;SDS011;61545;53.726;-0.444;2022-09-14T22:33:01;10.3;;;1.9;;
73315;SDS011;61545;53.726;-0.444;2022-09-14T22:38:00;5.8;;;1.6;;
73315;SDS011;61545;53.726;-0.444;2022-09-14T22:43:00;7.2;;;2;;
73315;SDS011;61545;53.726;-0.444;2022-09-14T22:48:00;7.2;;;2;;
73315;SDS011;61545;53.726;-0.444;2022-09-14T22:53:00;9.0;;;1.6;;
73315;SDS011;61545;53.726;-0.444;2022-09-14T22:58:00;5.9;;;1.6;;
73315;SDS011;61545;53.726;-0.444;2022-09-14T23:03:00;6.5;;;2;;
73315;SDS011;61545;53.726;-0.444;2022-09-14T23:08:01;5.7;;;1.6;;
73315;SDS011;61545;53.726;-0.444;2022-09-14T23:13:00;7.2;;;1.7;;
73315;SDS011;61545;53.726;-0.444;2022-09-14T23:18:00;7.2;;;1.7;;
73315;SDS011;61545;53.726;-0.444;2022-09-14T23:23:00;12.6;;;2.1;;
73315;SDS011;61545;53.726;-0.444;2022-09-14T23:28:00;9.2;;;2.1;;
73315;SDS011;61545;53.726;-0.444;2022-09-14T23:33:00;9.2;;;1.6;;
73315;SDS011;61545;53.726;-0.444;2022-09-14T23:38:00;8.8;;;1.8;;
73315;SDS011;61545;53.726;-0.444;2022-09-14T23:43:00;5.4;;;1.6;;
73315;SDS011;61545;53.726;-0.444;2022-09-14T23:48:00;5.4;;;1.6;;
73315;SDS011;61545;53.726;-0.444;2022-09-14T23:53:00;7.1;;;1.4;;
73315;SDS011;61545;53.726;-0.444;2022-09-14T23:58:00;4.3;;;1.5;;
